createdAt,value
2022-12-24T00:02:42.235Z,38.20
2022-12-24T00:05:44.070Z,38.20
2022-12-24T00:08:45.971Z,38.80
2022-12-24T00:14:49.274Z,40.00
2022-12-24T00:20:53.443Z,43.60
2022-12-24T00:23:55.142Z,46.40
2022-12-24T00:29:58.408Z,49.00
2022-12-24T00:33:00.205Z,48.80
2022-12-24T00:39:03.809Z,53.60
2022-12-24T00:42:05.445Z,50.00
2022-12-24T00:45:07.712Z,39.30
2022-12-24T00:48:09.422Z,34.40
2022-12-24T00:54:14.059Z,35.40
2022-12-24T00:57:15.796Z,36.30
2022-12-24T01:00:18.147Z,37.90
2022-12-24T01:03:19.944Z,39.60
2022-12-24T01:06:22.076Z,44.20
2022-12-24T01:09:24.094Z,48.70
2022-12-24T01:15:27.712Z,48.10
2022-12-24T01:18:29.637Z,50.00
2022-12-24T01:24:33.019Z,51.00
2022-12-24T01:27:34.759Z,47.90
2022-12-24T01:33:38.234Z,43.20
2022-12-24T01:39:41.535Z,44.50
2022-12-24T01:43:05.502Z,46.90
2022-12-24T01:46:24.437Z,46.80
2022-12-24T01:49:26.281Z,38.60
2022-12-24T01:55:36.912Z,38.70
2022-12-24T01:58:40.743Z,38.30
2022-12-24T02:01:42.689Z,41.20
2022-12-24T02:04:49.764Z,42.20
2022-12-24T02:07:51.673Z,43.70
2022-12-24T02:10:54.000Z,46.00
2022-12-24T02:13:59.428Z,49.70
2022-12-24T02:17:21.230Z,56.60
2022-12-24T02:24:02.244Z,45.60
2022-12-24T02:27:24.230Z,44.30
2022-12-24T02:33:37.678Z,46.60
2022-12-24T02:37:19.248Z,43.40
2022-12-24T02:40:27.859Z,43.10
2022-12-24T02:43:35.921Z,43.40
2022-12-24T02:46:37.780Z,44.70
2022-12-24T02:49:43.944Z,48.20
2022-12-24T02:52:47.298Z,49.30
2022-12-24T02:56:00.122Z,45.90
2022-12-24T02:59:41.770Z,46.90
2022-12-24T03:03:08.608Z,44.70
2022-12-24T03:06:38.483Z,46.60
2022-12-24T03:10:31.077Z,48.50
2022-12-24T03:13:32.848Z,51.40
2022-12-24T03:19:36.735Z,53.20
2022-12-24T03:22:39.089Z,57.90
2022-12-24T03:25:43.157Z,54.80
2022-12-24T03:28:45.966Z,56.60
2022-12-24T03:31:50.550Z,53.70
2022-12-24T03:34:52.373Z,53.30
2022-12-24T03:40:55.671Z,52.90
2022-12-24T03:46:58.912Z,51.30
2022-12-24T03:50:00.793Z,49.00
2022-12-24T03:53:05.492Z,50.00
2022-12-24T03:56:07.421Z,50.00
2022-12-24T03:59:09.087Z,61.90
2022-12-24T04:02:10.951Z,64.10
2022-12-24T04:05:18.791Z,70.30
2022-12-24T04:08:20.599Z,74.60
2022-12-24T04:14:24.033Z,78.10
2022-12-24T04:17:25.673Z,80.40
2022-12-24T04:20:27.309Z,81.70
2022-12-24T04:23:31.798Z,79.70
2022-12-24T04:26:33.462Z,80.90
2022-12-24T04:32:36.854Z,80.00
2022-12-24T04:38:44.102Z,80.70
2022-12-24T04:41:45.911Z,75.20
2022-12-24T04:44:47.693Z,74.50
2022-12-24T04:50:50.958Z,74.30
2022-12-24T04:53:52.845Z,79.60
2022-12-24T04:56:54.542Z,76.20
2022-12-24T04:59:56.625Z,77.90
2022-12-24T05:06:04.774Z,81.80
2022-12-24T05:09:06.509Z,79.30
2022-12-24T05:18:12.451Z,79.00
2022-12-24T05:21:19.583Z,70.30
2022-12-24T05:24:39.978Z,62.90
2022-12-24T05:27:47.419Z,64.30
2022-12-24T05:30:52.636Z,74.50
2022-12-24T05:36:56.722Z,62.80
2022-12-24T05:43:00.265Z,57.20
2022-12-24T05:49:04.281Z,58.50
2022-12-24T05:55:09.337Z,60.60
2022-12-24T05:58:11.077Z,62.80
2022-12-24T06:04:14.609Z,58.00
2022-12-24T06:10:18.063Z,64.50
2022-12-24T06:16:22.801Z,65.40
2022-12-24T06:19:24.758Z,66.80
2022-12-24T06:25:28.102Z,54.40
2022-12-24T06:31:36.082Z,52.70
2022-12-24T06:34:37.775Z,53.40
2022-12-24T06:37:39.411Z,52.20
2022-12-24T06:40:42.939Z,48.70
2022-12-24T06:43:50.818Z,50.10
2022-12-24T06:46:52.570Z,49.60
2022-12-24T06:52:56.052Z,60.00
2022-12-24T06:56:08.777Z,48.50
2022-12-24T06:59:10.604Z,52.80
2022-12-24T07:05:14.748Z,55.60
2022-12-24T07:08:16.554Z,45.50
2022-12-24T07:14:20.057Z,43.40
2022-12-24T07:23:25.830Z,59.80
2022-12-24T07:26:27.553Z,61.80
2022-12-24T07:32:30.944Z,63.00
2022-12-24T07:35:32.622Z,66.00
2022-12-24T07:41:41.500Z,60.30
2022-12-24T07:44:43.502Z,58.40
2022-12-24T07:50:50.061Z,51.20
2022-12-24T07:53:51.790Z,48.00
2022-12-24T07:59:55.047Z,44.90
2022-12-24T08:02:56.869Z,44.20
2022-12-24T08:05:58.829Z,40.70
2022-12-24T08:09:00.563Z,41.20
2022-12-24T08:15:07.369Z,43.00
2022-12-24T08:18:10.432Z,43.70
2022-12-24T08:21:12.168Z,41.40
2022-12-24T08:24:14.041Z,39.80
2022-12-24T08:30:20.995Z,36.20
2022-12-24T08:33:23.528Z,36.30
2022-12-24T08:36:25.241Z,33.50
2022-12-24T08:42:28.558Z,30.80
2022-12-24T08:48:39.813Z,30.50
2022-12-24T08:54:43.128Z,29.70
2022-12-24T09:00:46.417Z,31.50
2022-12-24T09:03:48.405Z,33.10
2022-12-24T09:06:50.269Z,33.90
2022-12-24T09:09:52.028Z,36.20
2022-12-24T09:12:53.705Z,36.80
2022-12-24T09:18:58.451Z,37.60
2022-12-24T09:22:00.117Z,34.90
2022-12-24T09:25:01.829Z,28.20
2022-12-24T09:28:03.598Z,23.50
2022-12-24T09:31:06.101Z,23.10
2022-12-24T09:34:08.042Z,21.50
2022-12-24T09:37:09.868Z,20.60
2022-12-24T09:40:23.025Z,21.60
2022-12-24T09:43:28.245Z,22.80
2022-12-24T09:46:37.425Z,23.00
2022-12-24T09:49:42.565Z,21.20
2022-12-24T09:52:45.732Z,18.60
2022-12-24T09:55:52.860Z,18.10
2022-12-24T09:59:04.220Z,15.20
2022-12-24T10:02:11.155Z,14.10
2022-12-24T10:05:18.561Z,11.70
2022-12-24T10:08:32.010Z,9.90
2022-12-24T10:12:01.619Z,11.00
2022-12-24T10:15:36.749Z,9.50
2022-12-24T10:19:14.830Z,7.90
2022-12-24T10:22:34.396Z,9.30
2022-12-24T10:25:43.301Z,10.00
2022-12-24T10:28:54.063Z,8.80
2022-12-24T10:32:01.611Z,8.30
2022-12-24T10:35:21.222Z,7.90
2022-12-24T10:38:22.989Z,8.10
2022-12-24T10:41:28.383Z,8.40
2022-12-24T10:44:32.114Z,9.30
2022-12-24T10:47:35.056Z,8.80
2022-12-24T10:50:47.255Z,8.80
2022-12-24T10:53:53.060Z,9.20
2022-12-24T10:57:01.590Z,8.20
2022-12-24T11:00:06.369Z,9.30
2022-12-24T11:03:22.427Z,8.10
2022-12-24T11:06:24.174Z,7.90
2022-12-24T11:09:29.263Z,8.30
2022-12-24T11:12:37.943Z,7.70
2022-12-24T11:15:39.746Z,7.60
2022-12-24T11:18:51.178Z,8.10
2022-12-24T11:22:03.556Z,9.40
2022-12-24T11:25:20.289Z,8.50
2022-12-24T11:28:26.268Z,7.50
2022-12-24T11:31:29.474Z,7.20
2022-12-24T11:34:33.064Z,5.90
2022-12-24T11:37:35.003Z,6.00
2022-12-24T11:40:39.144Z,5.70
2022-12-24T11:43:46.808Z,5.50
2022-12-24T11:46:52.419Z,5.10
2022-12-24T11:49:59.276Z,5.90
2022-12-24T11:53:21.089Z,6.10
2022-12-24T11:56:32.649Z,6.20
2022-12-24T11:59:40.950Z,6.00
2022-12-24T12:02:44.002Z,6.20
2022-12-24T12:05:45.905Z,6.50
2022-12-24T12:08:48.155Z,6.80
2022-12-24T12:12:02.223Z,7.20
2022-12-24T12:15:25.558Z,6.80
2022-12-24T12:18:35.881Z,7.30
2022-12-24T12:21:41.695Z,6.20
2022-12-24T12:24:48.365Z,6.90
2022-12-24T12:27:53.220Z,6.40
2022-12-24T12:31:02.849Z,5.90
2022-12-24T12:34:13.963Z,6.40
2022-12-24T12:37:22.095Z,7.80
2022-12-24T12:40:34.886Z,6.70
2022-12-24T12:44:14.982Z,6.90
2022-12-24T12:47:35.836Z,7.30
2022-12-24T12:50:46.333Z,7.40
2022-12-24T12:54:07.093Z,8.00
2022-12-24T12:57:12.198Z,7.80
2022-12-24T13:00:18.167Z,7.30
2022-12-24T13:03:48.166Z,7.90
2022-12-24T13:07:34.247Z,9.70
2022-12-24T13:10:53.233Z,8.70
2022-12-24T13:14:16.798Z,9.10
2022-12-24T13:17:18.389Z,11.60
2022-12-24T13:23:26.661Z,8.90
2022-12-24T13:26:28.325Z,8.50
2022-12-24T13:32:52.639Z,9.30
2022-12-24T13:39:00.271Z,10.20
2022-12-24T13:42:01.896Z,9.70
2022-12-24T13:48:33.355Z,11.00
2022-12-24T13:51:35.053Z,10.80
2022-12-24T13:54:43.277Z,10.90
2022-12-24T13:57:53.408Z,10.00
2022-12-24T14:01:01.168Z,10.70
2022-12-24T14:04:04.415Z,11.00
2022-12-24T14:07:06.276Z,11.60
2022-12-24T14:10:20.767Z,12.40
2022-12-24T14:13:38.036Z,13.20
2022-12-24T14:16:46.178Z,13.50
2022-12-24T14:19:52.052Z,12.30
2022-12-24T14:22:54.057Z,13.00
2022-12-24T14:25:57.499Z,13.10
2022-12-24T14:29:36.587Z,13.00
2022-12-24T14:32:40.399Z,13.00
2022-12-24T14:35:42.249Z,14.10
2022-12-24T14:38:44.815Z,14.70
2022-12-24T14:41:53.719Z,14.50
2022-12-24T14:45:29.711Z,16.30
2022-12-24T14:48:45.963Z,18.10
2022-12-24T14:52:00.143Z,18.60
2022-12-24T14:55:32.112Z,18.40
2022-12-24T15:04:37.673Z,22.30
2022-12-24T15:07:47.682Z,22.20
2022-12-24T15:10:55.247Z,22.20
2022-12-24T15:13:59.375Z,23.40
2022-12-24T15:17:04.713Z,22.20
2022-12-24T15:20:07.716Z,22.80
2022-12-24T15:23:19.061Z,23.10
2022-12-24T15:26:27.362Z,21.90
2022-12-24T15:29:32.416Z,21.90
2022-12-24T15:32:34.392Z,22.30
2022-12-24T15:35:52.319Z,22.10
2022-12-24T15:38:55.159Z,22.20
2022-12-24T15:42:15.430Z,22.60
2022-12-24T15:45:28.054Z,23.90
2022-12-24T15:48:31.570Z,23.70
2022-12-24T15:51:38.437Z,23.00
2022-12-24T15:54:52.145Z,25.00
2022-12-24T15:57:57.448Z,24.90
2022-12-24T16:04:25.450Z,26.50
2022-12-24T16:07:47.361Z,27.70
2022-12-24T16:13:57.695Z,29.20
2022-12-24T16:16:59.485Z,27.30
2022-12-24T16:20:06.876Z,27.30
2022-12-24T16:23:17.652Z,31.00
2022-12-24T16:26:19.688Z,30.60
2022-12-24T16:29:22.473Z,33.30
2022-12-24T16:32:34.818Z,32.60
2022-12-24T16:35:38.597Z,31.20
2022-12-24T16:38:59.132Z,30.60
2022-12-24T16:42:21.787Z,32.90
2022-12-24T16:45:23.545Z,35.20
2022-12-24T16:48:25.676Z,36.10
2022-12-24T16:51:27.295Z,32.10
2022-12-24T16:57:33.334Z,28.50
2022-12-24T17:00:36.310Z,27.00
2022-12-24T17:03:38.109Z,27.10
2022-12-24T17:06:39.958Z,25.30
2022-12-24T17:09:42.362Z,27.10
2022-12-24T17:12:44.222Z,28.10
2022-12-24T17:15:45.991Z,28.70
2022-12-24T17:18:48.768Z,28.50
2022-12-24T17:21:50.510Z,27.50
2022-12-24T17:24:52.776Z,28.30
2022-12-24T17:27:54.697Z,26.80
2022-12-24T17:30:58.811Z,27.50
2022-12-24T17:34:00.679Z,26.50
2022-12-24T17:37:02.462Z,26.80
2022-12-24T17:40:04.699Z,23.90
2022-12-24T17:43:06.474Z,25.30
2022-12-24T17:46:16.574Z,23.90
2022-12-24T17:49:18.244Z,25.50
2022-12-24T17:52:19.999Z,24.60
2022-12-24T17:55:23.770Z,24.90
2022-12-24T17:58:25.496Z,25.30
2022-12-24T18:04:32.540Z,23.90
2022-12-24T18:07:34.183Z,26.30
2022-12-24T18:13:37.564Z,26.50
2022-12-24T18:16:40.511Z,29.10
2022-12-24T18:19:42.388Z,25.10
2022-12-24T18:22:43.977Z,21.50
2022-12-24T18:28:47.517Z,20.10
2022-12-24T18:31:49.399Z,18.20
2022-12-24T18:34:51.778Z,19.40
2022-12-24T18:37:53.601Z,17.70
2022-12-24T18:40:55.315Z,18.90
2022-12-24T18:46:58.900Z,18.90
2022-12-24T18:50:00.656Z,19.00
2022-12-24T18:53:02.935Z,20.00
2022-12-24T18:56:05.485Z,21.00
2022-12-24T18:59:07.212Z,20.20
2022-12-24T19:05:11.771Z,19.70
2022-12-24T19:08:47.240Z,20.30
2022-12-24T19:11:36.918Z,22.10
2022-12-24T19:14:39.538Z,20.10
2022-12-24T19:17:41.837Z,20.70
2022-12-24T19:20:43.712Z,21.80
2022-12-24T19:23:47.141Z,20.60
2022-12-24T19:26:49.058Z,21.50
2022-12-24T19:29:50.740Z,21.50
2022-12-24T19:35:54.128Z,21.50
2022-12-24T19:38:57.233Z,21.00
2022-12-24T19:42:00.257Z,20.70
2022-12-24T19:45:01.990Z,19.70
2022-12-24T19:48:03.863Z,19.80
2022-12-24T19:51:07.823Z,22.40
2022-12-24T19:54:18.681Z,22.20
2022-12-24T19:57:21.171Z,20.60
2022-12-24T20:00:23.013Z,18.50
2022-12-24T20:09:32.769Z,19.20
2022-12-24T20:12:34.491Z,19.80
2022-12-24T20:18:45.323Z,19.50
2022-12-24T20:21:47.089Z,19.70
2022-12-24T20:24:48.807Z,21.60
2022-12-24T20:30:52.292Z,21.30
2022-12-24T20:33:54.654Z,21.90
2022-12-24T20:36:56.354Z,22.30
2022-12-24T20:39:58.163Z,23.20
2022-12-24T20:46:02.264Z,24.60
2022-12-24T20:49:05.435Z,23.80
2022-12-24T20:52:07.883Z,24.20
2022-12-24T20:55:09.686Z,23.70
2022-12-24T20:58:13.317Z,23.00
2022-12-24T21:01:18.590Z,22.80
2022-12-24T21:04:20.525Z,25.40
2022-12-24T21:07:22.208Z,28.70
2022-12-24T21:13:32.432Z,24.40
2022-12-24T21:19:36.342Z,22.70
2022-12-24T21:22:38.768Z,22.50
2022-12-24T21:25:40.579Z,21.50
2022-12-24T21:28:43.981Z,22.30
2022-12-24T21:31:46.354Z,22.50
2022-12-24T21:34:48.227Z,22.60
2022-12-24T21:37:49.862Z,23.00
2022-12-24T21:44:03.182Z,21.30
2022-12-24T21:47:04.883Z,22.00
2022-12-24T21:53:52.876Z,20.40
2022-12-24T21:57:22.627Z,21.30
2022-12-24T22:00:30.749Z,20.40
2022-12-24T22:03:32.510Z,21.20
2022-12-24T22:06:53.107Z,21.80
2022-12-24T22:10:13.591Z,20.20
2022-12-24T22:13:15.389Z,20.60
2022-12-24T22:16:17.214Z,21.10
2022-12-24T22:19:19.115Z,21.10
2022-12-24T22:22:21.842Z,21.20
2022-12-24T22:25:23.501Z,21.30
2022-12-24T22:31:27.457Z,21.60
2022-12-24T22:34:29.225Z,21.40
2022-12-24T22:40:32.684Z,20.70
2022-12-24T22:43:34.679Z,28.90
2022-12-24T22:46:36.556Z,29.80
2022-12-24T22:49:38.399Z,25.70
2022-12-24T22:52:40.078Z,29.90
2022-12-24T22:55:41.766Z,30.70
2022-12-24T22:58:43.699Z,27.80
2022-12-24T23:01:46.794Z,24.70
2022-12-24T23:04:48.813Z,24.70
2022-12-24T23:07:50.487Z,23.80
2022-12-24T23:14:14.185Z,24.30
2022-12-24T23:17:16.528Z,26.70
2022-12-24T23:23:20.025Z,23.90
2022-12-24T23:26:22.309Z,23.40
2022-12-24T23:29:24.250Z,23.20
2022-12-24T23:32:25.942Z,23.60
2022-12-24T23:38:29.341Z,22.20
2022-12-24T23:41:30.954Z,22.60
2022-12-24T23:44:33.027Z,22.30
2022-12-24T23:47:34.855Z,21.90
2022-12-24T23:50:37.024Z,21.80
2022-12-24T23:53:39.327Z,22.00
2022-12-24T23:56:40.932Z,22.20
2022-12-24T23:59:42.687Z,22.70
